Smeltertown, Colorado
Current Conditions -  °F | °C
As of 4:15 PM on Wednesday 26 Nov 2014 (Local Time) from KANK Reporting Station
Clear Clear  
Wind Chill: 40°   Ceiling: Unl
Heat Index: 47°   Visibility: 10mi
Dew Point: 24°   Wind: 16mph
Humidity: 42%   Direction: 250°WSW
Pressure: 30.34"   Gusts: 26mph
Location:  38.5561°N, 106.066°W
Report Text: KANK 262315Z AUTO 25014G23KT 10SM CLR 08/M04 A3034 RMK AO1 T00811043
Loading
Personal Weather Stations






























Interactive Weather Map New forecast layout! Learn more

10-Day Weather Forecast

Advertisements
Track Severe Weather on mobile